Essie, Kentucky
Current Conditions -  °F | °C
As of 11:15 AM on Monday 22 Dec 2014 (Local Time) from KI35 Reporting Station
Overcast Overcast  
Wind Chill: 54°   Ceiling: 3500
Heat Index: 54°   Visibility: 10mi
Dew Point: 37°   Wind: 7mph
Humidity: 54%   Direction: 130°SE
Pressure: 29.98"   Gusts: NA
Location:  37.06°N, 83.45°W
Report Text: KI35 221615Z AUTO 13006KT 10SM OVC035 12/03 A2998 RMK AO1
Loading
Personal Weather Stations






























Interactive Weather Map New forecast layout! Learn more

10-Day Weather Forecast

Advertisements
Track Severe Weather on mobile